SPHO

Coronel FAP Alfredo Mendivil Duarte Airport

Ayacucho, Peru
SPHO 151100Z 1512/1612 32002KT CAVOK TX21/1519Z TN08/1611Z TEMPO 1516/1523 20020G30KT FEW040 FEW050TCU BKN100 TEMPO 1603/1612 SCT045 FEW050TCU
Issued Valid From Valid To
Aug-15 @ 11:00 UTC
(2 hours ago)
Aug-15 @ 12:00 UTC
(42 minutes ago)
Aug-16 @ 12:00 UTC
(in 23 hours)
Aug-15 @ 12:00 to Aug-16 @ 12:00
SPHO 151100Z 1512/1612 32002KT CAVOK TX21/1519Z TN08/1611Z
Wind Visibility Clouds
320° at 2 knots 10,000+ meters
  • No significant clouds
Temporary Aug-15 @ 16:00 to Aug-15 @ 23:00
TEMPO 1516/1523 20020G30KT FEW040 FEW050TCU BKN100
Wind Clouds
200° at 20 knots
 Gusting to 30 knots
  • Few at 4,000' AGL
  • Few at 5,000' AGL
  • Broken at 10,000' AGL
Temporary Aug-16 @ 03:00 to Aug-16 @ 12:00
TEMPO 1603/1612 SCT045 FEW050TCU
Clouds
  • Scattered at 4,500' AGL
  • Few at 5,000' AGL
SPHO 151100Z 1512/1612 32002KT CAVOK TX21/1519Z TN08/1611Z TEMPO 1516/1523 20020G30KT FEW040 FEW050TCU BKN100 TEMPO 1603/1612 SCT045 FEW050TCU
Issued Aug-15 @ 11:00 UTC
(2 hours ago)
Valid From Aug-15 @ 12:00 UTC
(42 minutes ago)
Valid To Aug-16 @ 12:00 UTC
(in 23 hours)
Aug-15 @ 12:00 - Aug-16 @ 12:00
Wind Visibility
320° at 2 knots 10,000+ meters
Clouds
  • No significant clouds
Temporary Aug-15 @ 16:00 - Aug-15 @ 23:00
Wind
200° at 20 knots
 Gusting to 30 knots
Clouds
  • Few at 4,000' AGL
  • Few at 5,000' AGL
  • Broken at 10,000' AGL
Temporary Aug-16 @ 03:00 - Aug-16 @ 12:00
Clouds
  • Scattered at 4,500' AGL
  • Few at 5,000' AGL